Time;durP1;ratioP1;P1;durP2;ratioP2;P2;SDS_P1;SDS_P2;PMS_P1;PMS_P2;Temp;Humidity;BMP_temperature;BMP_pressure;BME280_temperature;BME280_humidity;BME280_pressure;Samples;Min_cycle;Max_cycle;Signal;HPM_P1;HPM_P2
2023/12/22 00:00:05;;;;;;;2.50;1.50;;;;;;;6.91;72.08;96942.88;5105869;28;20097;-70
2023/12/22 00:02:33;;;;;;;3.42;1.50;;;;;;;6.91;71.71;96938.44;5105554;28;20039;-70
2023/12/22 00:05:00;;;;;;;3.22;1.60;;;;;;;6.86;72.47;96955.56;5105826;28;20040;-70
2023/12/22 00:07:28;;;;;;;3.10;1.50;;;;;;;6.71;72.30;96954.91;5105981;28;20154;-71
2023/12/22 00:09:54;;;;;;;2.28;1.35;;;;;;;6.70;72.17;96955.88;5105773;28;20046;-70
2023/12/22 00:12:21;;;;;;;3.03;1.50;;;;;;;6.70;71.25;96966.41;5105715;28;20054;-70
2023/12/22 00:14:48;;;;;;;2.15;1.40;;;;;;;6.65;71.21;96979.09;5105742;28;20048;-70
2023/12/22 00:17:14;;;;;;;2.53;1.45;;;;;;;6.63;70.56;96967.84;5107780;28;20165;-70
2023/12/22 00:19:42;;;;;;;4.28;2.15;;;;;;;6.65;69.47;96926.44;5109397;28;20044;-70
2023/12/22 00:22:09;;;;;;;2.28;1.45;;;;;;;6.47;67.82;96944.50;5109675;28;20051;-70
2023/12/22 00:24:35;;;;;;;5.40;1.80;;;;;;;6.41;66.61;96940.53;5109656;28;20040;-70
2023/12/22 00:27:03;;;;;;;2.42;1.70;;;;;;;6.42;66.90;96950.09;5109540;28;20054;-70
2023/12/22 00:29:29;;;;;;;3.22;1.50;;;;;;;6.40;66.71;96933.59;5109815;28;20090;-71
2023/12/22 00:31:56;;;;;;;3.55;1.65;;;;;;;6.48;64.48;96937.44;5108851;28;20129;-70
2023/12/22 00:34:23;;;;;;;5.13;1.98;;;;;;;6.46;64.48;96963.03;5109159;28;20097;-70
2023/12/22 00:36:51;;;;;;;4.00;1.63;;;;;;;6.40;63.66;96964.31;5109123;28;20048;-70
2023/12/22 00:39:18;;;;;;;2.63;1.52;;;;;;;6.35;63.34;96964.69;5109008;28;20047;-70
2023/12/22 00:41:44;;;;;;;4.15;1.75;;;;;;;6.33;63.23;96945.53;5109324;28;20101;-70
2023/12/22 00:44:11;;;;;;;3.65;1.60;;;;;;;6.34;63.11;96934.06;5109296;28;20055;-70
2023/12/22 00:46:37;;;;;;;3.47;1.50;;;;;;;6.39;63.71;96946.88;5109251;28;20055;-70
2023/12/22 00:49:04;;;;;;;3.72;1.60;;;;;;;6.32;63.52;96966.69;5109370;28;20048;-70
2023/12/22 00:51:31;;;;;;;2.97;1.50;;;;;;;6.33;62.96;96985.00;5109108;28;20142;-70
2023/12/22 00:53:59;;;;;;;3.75;1.75;;;;;;;6.32;62.69;96974.59;5109087;28;20044;-70
2023/12/22 00:56:25;;;;;;;2.92;1.80;;;;;;;6.31;63.37;96994.81;5109001;28;20051;-69
2023/12/22 00:58:53;;;;;;;3.03;1.50;;;;;;;6.34;63.31;96991.94;5109275;28;20044;-70
2023/12/22 01:01:21;;;;;;;3.97;1.60;;;;;;;6.19;63.08;96952.81;5108916;28;20277;-70
2023/12/22 01:03:47;;;;;;;3.72;1.80;;;;;;;6.30;62.51;96994.91;5108619;28;20052;-70
2023/12/22 01:06:14;;;;;;;2.75;1.60;;;;;;;6.29;62.61;96983.56;5108815;28;20105;-70
2023/12/22 01:08:41;;;;;;;3.13;1.67;;;;;;;6.23;62.30;97001.59;5108724;28;20339;-70
2023/12/22 01:11:09;;;;;;;3.45;1.50;;;;;;;6.26;62.27;96996.09;5108505;28;20082;-70
2023/12/22 01:13:35;;;;;;;2.92;1.40;;;;;;;6.27;62.36;96974.09;5108775;28;20089;-69
2023/12/22 01:16:01;;;;;;;3.60;1.52;;;;;;;6.25;61.84;96990.00;5109007;28;20036;-70
2023/12/22 01:18:29;;;;;;;2.83;1.70;;;;;;;6.21;62.00;96988.56;5108646;28;20048;-70
2023/12/22 01:20:56;;;;;;;3.38;1.80;;;;;;;6.23;61.50;97015.59;5108389;28;20103;-70
2023/12/22 01:23:25;;;;;;;3.20;1.40;;;;;;;6.24;62.12;97008.53;5108135;28;20094;-70
2023/12/22 01:25:51;;;;;;;2.65;1.75;;;;;;;6.19;62.02;97024.66;5108520;28;20111;-69
2023/12/22 01:28:19;;;;;;;3.05;1.67;;;;;;;6.17;62.72;97038.88;5107522;28;20040;-70
2023/12/22 01:30:46;;;;;;;5.90;1.73;;;;;;;6.21;62.51;97043.78;5108392;28;20066;-70
2023/12/22 01:33:13;;;;;;;2.53;1.55;;;;;;;6.22;62.32;97016.53;5108368;28;20048;-70
2023/12/22 01:35:39;;;;;;;2.40;1.52;;;;;;;6.16;61.84;97001.22;5108015;28;20208;-70
2023/12/22 01:38:06;;;;;;;2.30;1.50;;;;;;;6.09;62.23;97007.88;5108566;28;20066;-70
2023/12/22 01:40:32;;;;;;;3.55;1.70;;;;;;;6.00;60.92;97017.28;5107551;28;20064;-70
2023/12/22 01:42:59;;;;;;;2.97;1.60;;;;;;;6.01;60.11;97004.97;5107021;28;20040;-70
2023/12/22 01:45:27;;;;;;;2.38;1.65;;;;;;;6.02;60.00;96998.78;5108376;28;20039;-70
2023/12/22 01:47:54;;;;;;;2.30;1.50;;;;;;;6.05;60.20;97023.03;5107997;28;20169;-70
2023/12/22 01:50:22;;;;;;;4.55;1.88;;;;;;;6.08;60.13;97012.31;5107978;28;20111;-70
2023/12/22 01:52:49;;;;;;;3.42;1.73;;;;;;;6.03;59.54;97003.91;5107992;28;20093;-70
2023/12/22 01:55:17;;;;;;;2.65;1.55;;;;;;;6.08;59.49;97024.59;5107929;28;20043;-70
2023/12/22 01:57:45;;;;;;;2.67;1.60;;;;;;;6.09;59.96;97018.41;5107832;28;20044;-69
2023/12/22 02:00:13;;;;;;;3.05;1.60;;;;;;;6.00;58.82;97019.06;5107805;28;20044;-70
2023/12/22 02:02:43;;;;;;;31.73;18.23;;;;;;;6.16;62.47;97010.91;5107720;28;20051;-67
2023/12/22 02:05:11;;;;;;;34.05;18.83;;;;;;;6.28;62.28;97025.75;5107393;28;20328;-69
2023/12/22 02:07:40;;;;;;;10.00;5.30;;;;;;;5.83;59.33;96973.00;5107600;28;20234;-70
2023/12/22 02:10:08;;;;;;;5.53;3.22;;;;;;;6.19;60.23;97027.28;5107660;28;20255;-70
2023/12/22 02:12:35;;;;;;;3.47;1.90;;;;;;;6.18;59.65;97038.75;5107866;28;20044;-70
2023/12/22 02:15:02;;;;;;;2.58;1.55;;;;;;;5.82;59.60;96994.13;5107499;28;20040;-70
2023/12/22 02:17:39;;;;;;;2.95;1.40;;;;;;;6.12;59.77;97076.03;5107391;28;20052;-70
2023/12/22 02:20:08;;;;;;;3.25;1.40;;;;;;;6.11;60.32;97066.47;5107430;28;20040;-70
2023/12/22 02:22:36;;;;;;;4.40;1.75;;;;;;;6.09;60.52;97058.69;5107353;28;20074;-70
2023/12/22 02:25:03;;;;;;;2.20;1.40;;;;;;;6.08;61.08;97041.22;5107056;28;20271;-70
2023/12/22 02:27:36;;;;;;;2.70;1.60;;;;;;;6.05;61.44;97028.31;5106994;28;20051;-69
2023/12/22 02:30:07;;;;;;;2.30;1.50;;;;;;;5.87;61.70;96998.09;5107183;28;20036;-69
2023/12/22 02:32:37;;;;;;;2.30;1.50;;;;;;;6.05;61.70;97041.44;5106054;28;20318;-70
2023/12/22 02:35:08;;;;;;;4.07;1.60;;;;;;;6.05;61.61;97030.09;5106836;28;20063;-70
2023/12/22 02:37:37;;;;;;;2.65;1.50;;;;;;;6.03;61.99;97032.00;5106772;28;20044;-71
2023/12/22 02:40:05;;;;;;;3.78;1.63;;;;;;;5.99;61.09;97027.91;5105721;28;20052;-70
2023/12/22 02:42:33;;;;;;;3.47;1.60;;;;;;;5.90;59.94;97045.19;5107032;28;20051;-70
2023/12/22 02:45:00;;;;;;;4.00;1.95;;;;;;;5.87;60.00;97049.84;5106925;28;20089;-70
2023/12/22 02:47:28;;;;;;;5.63;1.70;;;;;;;5.01;58.27;96931.72;5107154;28;20105;-70
2023/12/22 02:49:55;;;;;;;3.53;1.95;;;;;;;5.71;57.57;97068.50;5106795;28;20099;-69
2023/12/22 02:52:22;;;;;;;3.15;2.20;;;;;;;5.23;56.05;96996.66;5106556;28;20101;-70
2023/12/22 02:54:50;;;;;;;5.10;2.25;;;;;;;5.69;56.87;97044.13;5106791;28;20050;-69
2023/12/22 02:57:16;;;;;;;4.43;1.98;;;;;;;5.67;55.35;97053.91;5107043;28;20047;-69
2023/12/22 02:59:43;;;;;;;5.47;2.22;;;;;;;5.45;55.33;97012.56;5105528;28;20058;-70
2023/12/22 03:02:10;;;;;;;6.00;2.20;;;;;;;5.64;54.77;97046.25;5106886;28;20051;-70
2023/12/22 03:04:36;;;;;;;5.20;1.92;;;;;;;5.62;55.03;97050.78;5106586;28;20242;-69
2023/12/22 03:07:03;;;;;;;4.15;2.25;;;;;;;5.62;54.79;97054.25;5106828;28;20160;-69
2023/12/22 03:09:29;;;;;;;3.95;2.00;;;;;;;5.63;54.73;97027.00;5106474;28;20040;-69
2023/12/22 03:12:01;;;;;;;3.88;2.25;;;;;;;5.64;54.70;97027.84;5106025;28;20338;-70
2023/12/22 03:14:28;;;;;;;5.72;2.25;;;;;;;5.60;55.12;97050.88;5106233;28;20369;-70
2023/12/22 03:16:55;;;;;;;4.35;2.45;;;;;;;4.73;55.54;96915.25;5106176;28;20051;-70
2023/12/22 03:19:22;;;;;;;3.40;1.70;;;;;;;5.64;56.15;97064.66;5106148;28;20101;-70
2023/12/22 03:21:49;;;;;;;3.53;1.77;;;;;;;5.63;56.89;97079.56;5106329;28;20070;-69
2023/12/22 03:24:15;;;;;;;3.67;1.70;;;;;;;5.64;57.56;97083.88;5105156;28;20089;-70
2023/12/22 03:26:42;;;;;;;5.00;2.00;;;;;;;5.63;58.15;97076.94;5105068;28;20044;-69
2023/12/22 03:29:10;;;;;;;3.95;1.83;;;;;;;5.66;59.06;97076.72;5105287;28;20089;-69
2023/12/22 03:31:37;;;;;;;3.15;1.83;;;;;;;5.63;59.55;97061.19;5106162;28;20043;-69
2023/12/22 03:34:03;;;;;;;2.85;1.75;;;;;;;5.67;60.07;97049.50;5105856;28;20051;-69
2023/12/22 03:36:30;;;;;;;2.58;1.80;;;;;;;4.62;60.61;96860.06;5105823;28;20052;-70
2023/12/22 03:38:57;;;;;;;3.33;2.05;;;;;;;5.62;61.02;97049.00;5105928;28;20059;-70
2023/12/22 03:41:24;;;;;;;3.97;2.00;;;;;;;5.60;61.43;97079.78;5105951;28;20117;-69
2023/12/22 03:43:50;;;;;;;2.70;1.80;;;;;;;5.57;61.73;97087.06;5105744;28;20048;-69
2023/12/22 03:46:18;;;;;;;3.60;1.90;;;;;;;5.56;62.02;97082.75;5104885;28;20320;-69
2023/12/22 03:48:46;;;;;;;3.83;1.70;;;;;;;5.53;62.31;97085.59;5105885;28;20044;-70
2023/12/22 03:51:14;;;;;;;3.20;1.80;;;;;;;5.53;62.63;97088.22;5105979;28;20074;-69
2023/12/22 03:53:41;;;;;;;3.30;2.05;;;;;;;5.45;62.64;97092.22;5105671;28;20039;-69
2023/12/22 03:56:08;;;;;;;4.57;1.90;;;;;;;5.42;62.73;97092.44;5105404;28;20059;-69
2023/12/22 03:58:35;;;;;;;3.85;1.98;;;;;;;5.40;63.05;97112.72;5105863;28;20284;-69
2023/12/22 04:01:01;;;;;;;3.03;1.70;;;;;;;5.39;63.03;97097.06;5105857;28;20043;-69
2023/12/22 04:03:30;;;;;;;2.45;1.50;;;;;;;5.14;63.47;97063.78;5105357;28;20097;-69
2023/12/22 04:05:56;;;;;;;2.80;1.73;;;;;;;5.38;63.10;97082.25;5105786;28;20044;-70
2023/12/22 04:08:23;;;;;;;2.92;1.80;;;;;;;5.39;63.12;97071.63;5105747;28;20040;-69
2023/12/22 04:10:50;;;;;;;3.60;1.67;;;;;;;5.42;63.02;97063.53;5105723;28;20052;-70
2023/12/22 04:13:16;;;;;;;2.53;1.60;;;;;;;5.28;63.14;97049.69;5105763;28;20051;-69
2023/12/22 04:15:43;;;;;;;3.63;2.28;;;;;;;5.38;63.07;97077.00;5105738;28;20140;-70
2023/12/22 04:18:10;;;;;;;2.92;2.10;;;;;;;5.34;63.08;97079.00;5105692;28;20205;-69
2023/12/22 04:20:38;;;;;;;3.92;1.80;;;;;;;5.37;62.80;97102.44;5105949;28;20349;-69
2023/12/22 04:23:05;;;;;;;2.47;1.60;;;;;;;5.18;62.66;97072.31;5105639;28;20044;-70
2023/12/22 04:25:31;;;;;;;3.15;1.70;;;;;;;5.31;62.88;97099.38;5105915;28;20051;-70
2023/12/22 04:27:58;;;;;;;4.80;2.10;;;;;;;5.32;63.06;97111.56;5105335;28;20327;-70
2023/12/22 04:30:26;;;;;;;3.78;2.05;;;;;;;5.30;62.72;97116.09;5105196;28;20317;-70
2023/12/22 04:32:53;;;;;;;7.35;2.22;;;;;;;5.30;62.75;97116.94;5105560;28;20051;-69
2023/12/22 04:35:20;;;;;;;2.95;1.95;;;;;;;5.30;62.53;97134.47;5105549;28;20044;-70
2023/12/22 04:37:48;;;;;;;2.80;1.60;;;;;;;5.29;62.65;97140.69;5105248;28;20125;-69
2023/12/22 04:40:14;;;;;;;2.95;1.70;;;;;;;5.23;62.41;97134.06;5105074;28;20109;-70
2023/12/22 04:42:41;;;;;;;3.03;1.60;;;;;;;5.24;62.53;97150.66;5105158;28;20055;-69
2023/12/22 04:45:08;;;;;;;2.75;1.80;;;;;;;5.26;62.44;97157.50;5105414;28;20043;-70
2023/12/22 04:47:35;;;;;;;3.92;1.83;;;;;;;5.28;62.58;97158.22;5105693;28;20242;-70
2023/12/22 04:50:01;;;;;;;3.20;1.60;;;;;;;5.12;62.36;97147.09;5105335;28;20101;-69
2023/12/22 04:52:28;;;;;;;2.30;1.50;;;;;;;5.19;62.15;97163.25;5105392;28;20040;-70
2023/12/22 04:54:56;;;;;;;3.75;2.05;;;;;;;5.23;62.13;97149.81;5104147;28;20044;-70
2023/12/22 04:57:23;;;;;;;3.15;1.70;;;;;;;5.18;61.87;97144.03;5105094;28;20095;-70
2023/12/22 04:59:50;;;;;;;2.53;1.77;;;;;;;5.21;62.21;97125.44;5105377;28;20093;-69
2023/12/22 05:02:16;;;;;;;3.88;2.00;;;;;;;5.24;62.08;97137.53;5104975;28;20055;-69
2023/12/22 05:04:43;;;;;;;3.72;2.13;;;;;;;5.26;61.46;97133.84;5107859;28;20055;-71
2023/12/22 05:07:10;;;;;;;3.65;1.90;;;;;;;5.20;61.80;97176.28;5108618;28;20043;-69
2023/12/22 05:09:37;;;;;;;3.88;1.70;;;;;;;5.20;60.96;97165.78;5108779;28;20059;-70
2023/12/22 05:12:06;;;;;;;3.75;1.98;;;;;;;5.22;61.51;97156.00;5108455;28;20089;-69
2023/12/22 05:14:32;;;;;;;3.88;1.88;;;;;;;4.99;61.29;97112.94;5108804;28;20043;-70
2023/12/22 05:16:59;;;;;;;3.20;1.83;;;;;;;5.23;60.96;97151.59;5108953;28;20105;-70
2023/12/22 05:19:26;;;;;;;2.90;2.00;;;;;;;5.03;60.74;97116.22;5108622;28;20040;-70
2023/12/22 05:21:55;;;;;;;2.92;1.92;;;;;;;5.22;60.16;97142.88;5107414;28;20039;-69
2023/12/22 05:24:22;;;;;;;3.75;1.80;;;;;;;5.14;60.05;97139.94;5107353;28;20095;-69
2023/12/22 05:26:49;;;;;;;3.78;1.90;;;;;;;5.17;59.97;97147.59;5108490;28;20192;-70
2023/12/22 05:29:16;;;;;;;4.82;2.30;;;;;;;5.09;60.00;97126.28;5108173;28;20062;-70
2023/12/22 05:31:43;;;;;;;4.30;1.80;;;;;;;5.21;60.02;97143.00;5108368;28;20052;-69
2023/12/22 05:34:10;;;;;;;3.58;1.70;;;;;;;5.22;59.80;97139.41;5108061;28;20040;-70
2023/12/22 05:36:37;;;;;;;2.90;1.70;;;;;;;5.20;59.98;97133.44;5108522;28;20032;-70
2023/12/22 05:39:03;;;;;;;3.92;1.98;;;;;;;5.15;60.02;97120.63;5108003;28;20234;-70
2023/12/22 05:41:30;;;;;;;3.70;2.00;;;;;;;5.09;59.55;97128.91;5108195;28;20044;-70
2023/12/22 05:43:57;;;;;;;4.95;2.55;;;;;;;5.09;59.26;97114.00;5108118;28;20044;-70
2023/12/22 05:46:25;;;;;;;4.70;2.03;;;;;;;5.12;59.34;97111.16;5108355;28;20104;-70
2023/12/22 05:48:51;;;;;;;5.07;1.95;;;;;;;5.15;59.05;97107.50;5108011;28;20208;-70
2023/12/22 05:51:18;;;;;;;4.60;2.30;;;;;;;5.18;59.03;97111.69;5107721;28;20074;-70
2023/12/22 05:53:44;;;;;;;4.25;2.53;;;;;;;5.12;59.16;97110.31;5108210;28;20048;-70
2023/12/22 05:56:19;;;;;;;9.60;2.38;;;;;;;5.12;58.85;97126.91;5107624;28;20051;-70
2023/12/22 05:58:46;;;;;;;3.83;2.17;;;;;;;4.67;59.17;97056.53;5106752;28;20124;-70
2023/12/22 06:01:15;;;;;;;5.32;2.45;;;;;;;5.00;59.50;97146.13;5107780;28;20044;-70
2023/12/22 06:03:43;;;;;;;3.85;2.45;;;;;;;5.02;59.52;97146.88;5107437;28;20351;-70
2023/12/22 06:06:10;;;;;;;5.90;2.40;;;;;;;4.98;59.76;97140.16;5107692;28;20246;-70
2023/12/22 06:08:37;;;;;;;3.20;1.95;;;;;;;4.98;59.92;97136.69;5107936;28;20192;-70
2023/12/22 06:11:04;;;;;;;4.40;2.20;;;;;;;4.98;60.14;97132.28;5107450;28;20040;-70
2023/12/22 06:13:31;;;;;;;5.60;2.50;;;;;;;4.93;60.46;97136.16;5107779;28;20065;-69
2023/12/22 06:15:58;;;;;;;5.90;2.50;;;;;;;4.94;60.71;97136.03;5107224;28;20090;-70
2023/12/22 06:18:24;;;;;;;5.32;2.67;;;;;;;4.93;60.68;97157.16;5107385;28;20050;-69
2023/12/22 06:20:53;;;;;;;4.05;2.10;;;;;;;4.87;61.41;97166.25;5107099;28;20308;-70
2023/12/22 06:23:20;;;;;;;5.13;2.15;;;;;;;4.89;61.60;97153.03;5106996;28;20086;-70
2023/12/22 06:25:47;;;;;;;3.28;2.40;;;;;;;4.86;61.91;97158.47;5107527;28;20043;-70
2023/12/22 06:28:16;;;;;;;3.75;2.30;;;;;;;4.79;62.04;97158.88;5107249;28;20059;-70
2023/12/22 06:30:44;;;;;;;5.97;2.67;;;;;;;4.75;62.42;97160.03;5106794;28;20335;-69
2023/12/22 06:33:11;;;;;;;2.97;1.80;;;;;;;4.76;62.56;97192.34;5107110;28;20067;-70
2023/12/22 06:35:37;;;;;;;2.83;2.10;;;;;;;4.52;62.52;97144.13;5106720;28;20111;-70
2023/12/22 06:38:06;;;;;;;3.65;2.00;;;;;;;4.66;62.79;97186.88;5107038;28;20101;-70
2023/12/22 06:40:33;;;;;;;2.83;2.05;;;;;;;4.46;62.35;97158.47;5106601;28;20101;-69
2023/12/22 06:42:59;;;;;;;4.22;2.28;;;;;;;4.62;63.03;97197.66;5107012;28;20052;-69
2023/12/22 06:45:26;;;;;;;3.70;2.10;;;;;;;4.65;63.39;97182.56;5106860;28;20271;-70
2023/12/22 06:47:52;;;;;;;3.80;2.10;;;;;;;4.60;64.04;97187.28;5106791;28;20043;-70
2023/12/22 06:50:19;;;;;;;2.92;1.70;;;;;;;4.59;63.92;97192.63;5106728;28;20040;-70
2023/12/22 06:52:46;;;;;;;3.20;1.73;;;;;;;4.53;64.54;97180.75;5106800;28;20075;-70
2023/12/22 06:55:14;;;;;;;2.67;1.90;;;;;;;4.48;64.83;97169.72;5106671;28;20044;-70
2023/12/22 06:57:40;;;;;;;4.60;1.80;;;;;;;4.48;64.98;97185.44;5106947;28;20098;-71
2023/12/22 07:00:08;;;;;;;3.00;2.00;;;;;;;3.96;65.24;97128.47;5106678;28;20051;-70
2023/12/22 07:02:35;;;;;;;4.90;1.85;;;;;;;4.47;65.02;97223.97;5106312;28;20051;-70
2023/12/22 07:05:34;;;;;;;3.22;1.80;;;;;;;4.51;64.92;97213.25;5106166;28;20196;-70
2023/12/22 07:08:00;;;;;;;4.25;1.98;;;;;;;4.51;64.82;97203.63;5106407;28;20044;-70
2023/12/22 07:10:28;;;;;;;4.03;2.20;;;;;;;4.49;64.93;97211.59;5106298;28;20081;-70
2023/12/22 07:12:55;;;;;;;4.68;2.20;;;;;;;4.51;64.90;97232.47;5106149;28;20040;-70
2023/12/22 07:15:21;;;;;;;3.28;2.03;;;;;;;4.54;64.82;97224.41;5106419;28;20044;-70
2023/12/22 07:17:48;;;;;;;3.40;2.00;;;;;;;4.49;65.03;97221.25;5106446;28;20063;-70
2023/12/22 07:20:15;;;;;;;4.22;2.05;;;;;;;4.47;65.06;97213.47;5106412;28;20280;-69
2023/12/22 07:22:41;;;;;;;3.88;1.90;;;;;;;4.50;64.77;97207.19;5106400;28;20040;-69
2023/12/22 07:25:09;;;;;;;3.47;1.98;;;;;;;4.52;64.63;97188.72;5106138;28;20259;-70
2023/12/22 07:27:37;;;;;;;3.58;1.90;;;;;;;4.51;64.44;97184.41;5105719;28;20044;-70
2023/12/22 07:30:05;;;;;;;3.10;2.00;;;;;;;4.53;64.43;97195.66;5104970;28;20089;-69
2023/12/22 07:32:31;;;;;;;3.08;1.80;;;;;;;4.34;64.50;97175.00;5106414;28;20181;-70
2023/12/22 07:34:58;;;;;;;3.15;1.83;;;;;;;4.52;64.54;97196.59;5106122;28;20044;-70
2023/12/22 07:37:24;;;;;;;2.85;1.73;;;;;;;4.53;64.55;97217.47;5106111;28;20043;-70
2023/12/22 07:39:51;;;;;;;3.30;2.08;;;;;;;4.55;64.43;97204.25;5105711;28;20113;-70
2023/12/22 07:42:18;;;;;;;3.20;1.98;;;;;;;4.56;64.40;97227.78;5106269;28;20044;-70
2023/12/22 07:44:46;;;;;;;3.90;2.25;;;;;;;4.55;64.53;97226.09;5106005;28;20054;-70
2023/12/22 07:47:12;;;;;;;2.67;1.70;;;;;;;4.50;64.44;97222.91;5105972;28;20105;-70
2023/12/22 07:49:39;;;;;;;3.28;1.73;;;;;;;4.30;64.41;97197.13;5105655;28;20039;-70
2023/12/22 07:52:07;;;;;;;3.83;1.73;;;;;;;4.53;64.25;97216.63;5105655;28;20044;-70
2023/12/22 07:54:33;;;;;;;2.40;1.67;;;;;;;4.54;64.58;97227.03;5104658;28;20089;-70
2023/12/22 07:57:00;;;;;;;3.08;1.75;;;;;;;4.58;64.24;97220.63;5105826;28;20101;-70
2023/12/22 07:59:27;;;;;;;3.85;1.90;;;;;;;4.58;64.24;97223.25;5105864;28;20044;-70
2023/12/22 08:01:55;;;;;;;3.75;1.90;;;;;;;4.59;64.04;97232.81;5105804;28;20048;-70
2023/12/22 08:04:21;;;;;;;4.90;1.90;;;;;;;4.55;63.94;97225.25;5105654;28;20081;-70
2023/12/22 08:06:48;;;;;;;2.90;1.80;;;;;;;4.56;63.68;97225.16;5105808;28;20103;-70
2023/12/22 08:09:15;;;;;;;3.10;1.75;;;;;;;4.59;63.86;97232.81;5105944;28;20097;-70
2023/12/22 08:11:41;;;;;;;2.30;1.60;;;;;;;4.60;63.62;97224.00;5105979;28;20196;-70
2023/12/22 08:14:08;;;;;;;3.75;1.80;;;;;;;4.59;63.85;97231.97;5105709;28;20075;-70
2023/12/22 08:16:35;;;;;;;2.58;1.63;;;;;;;4.55;63.65;97239.19;5105582;28;20052;-70
2023/12/22 08:19:03;;;;;;;2.70;1.67;;;;;;;4.58;63.59;97225.88;5105653;28;20043;-70
2023/12/22 08:21:29;;;;;;;2.63;1.80;;;;;;;4.61;63.45;97241.44;5104703;28;20078;-70
2023/12/22 08:23:56;;;;;;;2.63;1.65;;;;;;;4.61;63.52;97245.84;5105503;28;20051;-70
2023/12/22 08:26:23;;;;;;;4.07;1.70;;;;;;;4.56;63.37;97238.25;5105564;28;20043;-70
2023/12/22 08:28:49;;;;;;;3.75;2.10;;;;;;;4.57;63.21;97229.44;5105577;28;20055;-70
2023/12/22 08:31:16;;;;;;;2.30;1.52;;;;;;;4.60;63.38;97244.16;5106011;28;20239;-70
2023/12/22 08:33:43;;;;;;;2.40;1.73;;;;;;;4.62;63.35;97248.38;5105513;28;20055;-70
2023/12/22 08:36:11;;;;;;;2.75;1.90;;;;;;;4.56;63.48;97255.78;5105388;28;20058;-70
2023/12/22 08:38:40;;;;;;;3.03;1.83;;;;;;;4.55;63.04;97252.31;5105784;28;20297;-70
2023/12/22 08:41:08;;;;;;;3.22;2.20;;;;;;;4.61;63.41;97249.31;5108091;28;20195;-70
2023/12/22 08:43:35;;;;;;;3.53;1.80;;;;;;;4.63;63.38;97239.56;5109199;28;20161;-70
2023/12/22 08:46:02;;;;;;;5.53;1.80;;;;;;;4.68;63.23;97245.34;5109238;28;20347;-70
2023/12/22 08:48:28;;;;;;;3.53;1.80;;;;;;;4.74;63.36;97258.06;5109087;28;20051;-71
2023/12/22 08:50:55;;;;;;;2.88;1.83;;;;;;;4.71;63.06;97244.31;5109322;28;20093;-70
2023/12/22 08:53:23;;;;;;;4.32;1.73;;;;;;;4.74;63.11;97234.44;5109014;28;20055;-70
2023/12/22 08:55:49;;;;;;;3.47;1.77;;;;;;;4.85;63.28;97219.78;5108975;28;20067;-70
2023/12/22 08:58:16;;;;;;;3.75;2.17;;;;;;;4.94;62.52;97234.97;5108734;28;20292;-70
2023/12/22 09:00:43;;;;;;;2.47;1.70;;;;;;;5.04;62.54;97230.78;5108908;28;20152;-70
2023/12/22 09:03:10;;;;;;;2.65;1.73;;;;;;;4.85;62.11;97194.38;5108662;28;20044;-70
2023/12/22 09:05:38;;;;;;;3.60;2.10;;;;;;;5.26;61.91;97219.69;5108790;28;20047;-70
2023/12/22 09:08:05;;;;;;;2.67;1.60;;;;;;;5.38;60.90;97224.94;5108792;28;20085;-70
2023/12/22 09:10:34;;;;;;;3.20;1.80;;;;;;;5.43;60.58;97229.88;5108063;28;20064;-70
2023/12/22 09:13:01;;;;;;;3.22;1.98;;;;;;;5.56;59.88;97220.22;5108595;28;20055;-70
2023/12/22 09:15:28;;;;;;;3.08;1.77;;;;;;;5.62;60.10;97214.53;5108566;28;20250;-70
2023/12/22 09:17:55;;;;;;;3.22;1.90;;;;;;;5.78;59.52;97201.16;5108570;28;20044;-71
2023/12/22 09:20:22;;;;;;;3.22;1.80;;;;;;;5.89;58.83;97196.00;5108284;28;20204;-70
2023/12/22 09:22:49;;;;;;;5.20;1.92;;;;;;;6.01;58.53;97187.25;5108499;28;20052;-70
2023/12/22 09:25:16;;;;;;;3.10;1.80;;;;;;;6.10;58.53;97183.13;5107582;28;20040;-70
2023/12/22 09:27:44;;;;;;;3.05;1.88;;;;;;;6.25;58.23;97189.06;5108377;28;20040;-71
2023/12/22 09:30:11;;;;;;;2.80;1.80;;;;;;;6.35;58.12;97176.94;5107159;28;20047;-70
2023/12/22 09:32:38;;;;;;;3.83;2.25;;;;;;;6.47;58.00;97188.34;5108591;28;20044;-71
2023/12/22 09:35:06;;;;;;;3.80;2.00;;;;;;;6.53;57.60;97199.28;5108247;28;20129;-71
2023/12/22 09:37:32;;;;;;;3.05;1.80;;;;;;;6.47;57.04;97204.16;5107492;28;20259;-70
2023/12/22 09:40:00;;;;;;;2.90;1.73;;;;;;;6.48;56.84;97217.19;5107684;28;20059;-70
2023/12/22 09:42:27;;;;;;;2.92;1.73;;;;;;;6.45;56.65;97222.69;5108853;28;20239;-71
2023/12/22 09:44:59;;;;;;;4.30;1.77;;;;;;;6.40;56.43;97230.06;5108084;28;20062;-71
2023/12/22 09:47:29;;;;;;;4.03;1.92;;;;;;;6.38;56.50;97231.97;5107921;28;20039;-71
2023/12/22 09:49:56;;;;;;;2.75;1.50;;;;;;;6.30;56.30;97252.72;5107310;28;20067;-71
2023/12/22 09:52:23;;;;;;;3.28;1.80;;;;;;;6.00;56.28;97221.53;5107477;28;20288;-70
2023/12/22 09:54:51;;;;;;;2.90;1.88;;;;;;;6.05;56.52;97229.94;5106975;28;20040;-71
2023/12/22 09:57:18;;;;;;;3.83;2.08;;;;;;;5.91;56.69;97186.22;5107622;28;20052;-70
2023/12/22 09:59:45;;;;;;;2.80;1.80;;;;;;;6.08;56.90;97216.56;5107539;28;20288;-70
2023/12/22 10:02:13;;;;;;;3.08;1.98;;;;;;;4.79;56.81;96987.47;5107560;28;20040;-70
2023/12/22 10:04:39;;;;;;;3.70;1.80;;;;;;;6.05;57.03;97220.25;5107750;28;20060;-70
2023/12/22 10:07:08;;;;;;;3.08;1.95;;;;;;;6.01;56.98;97247.72;5107138;28;20353;-70
2023/12/22 10:09:36;;;;;;;3.35;1.83;;;;;;;5.98;57.21;97239.22;5107263;28;20101;-70
2023/12/22 10:12:05;;;;;;;2.30;1.60;;;;;;;5.93;57.42;97242.16;5106642;28;20072;-70
2023/12/22 10:14:35;;;;;;;2.70;1.65;;;;;;;5.89;57.57;97242.47;5107441;28;20216;-71
2023/12/22 10:17:02;;;;;;;3.15;1.80;;;;;;;5.83;57.69;97246.38;5107170;28;20074;-72
2023/12/22 10:19:30;;;;;;;3.10;1.52;;;;;;;5.78;57.70;97245.84;5107436;28;20052;-71
2023/12/22 10:21:57;;;;;;;2.97;1.90;;;;;;;5.77;57.72;97252.91;5107139;28;20036;-71
2023/12/22 10:24:41;;;;;;;2.38;1.63;;;;;;;5.75;57.52;97262.69;5105784;28;20040;-71
2023/12/22 10:27:09;;;;;;;2.60;1.60;;;;;;;5.70;57.73;97274.44;5107552;28;20044;-71
2023/12/22 10:29:35;;;;;;;3.20;1.90;;;;;;;5.72;57.53;97241.03;5106733;28;20054;-69
2023/12/22 10:32:03;;;;;;;3.05;1.67;;;;;;;5.70;57.29;97263.94;5106827;28;20043;-70
2023/12/22 10:34:32;;;;;;;2.63;1.63;;;;;;;5.03;57.42;97139.84;5107308;28;20115;-70
2023/12/22 10:37:00;;;;;;;3.03;1.90;;;;;;;5.83;57.47;97249.00;5107270;28;20046;-71
2023/12/22 10:39:28;;;;;;;5.82;2.47;;;;;;;5.92;57.03;97240.47;5106357;28;20058;-70
2023/12/22 10:41:55;;;;;;;2.33;1.65;;;;;;;5.74;56.43;97205.81;5106954;28;20056;-70
2023/12/22 10:44:24;;;;;;;3.10;1.67;;;;;;;6.12;56.31;97230.34;5105405;28;20066;-71
2023/12/22 10:46:51;;;;;;;3.25;1.70;;;;;;;6.27;56.42;97230.09;5106559;28;20342;-71
2023/12/22 10:49:17;;;;;;;3.78;2.00;;;;;;;6.30;55.79;97216.72;5106558;28;20242;-71
2023/12/22 10:51:45;;;;;;;2.90;1.70;;;;;;;6.36;55.76;97237.34;5106543;28;20040;-70
2023/12/22 10:54:12;;;;;;;2.63;1.77;;;;;;;6.49;55.36;97215.41;5106605;28;20085;-70
2023/12/22 10:56:40;;;;;;;3.42;1.77;;;;;;;6.21;55.40;97158.69;5106287;28;20059;-70
2023/12/22 10:59:07;;;;;;;3.67;1.80;;;;;;;6.58;54.12;97218.22;5106574;28;20044;-71
2023/12/22 11:01:38;;;;;;;3.33;1.80;;;;;;;6.74;54.60;97223.19;5105437;28;20032;-70
2023/12/22 11:04:08;;;;;;;2.85;1.65;;;;;;;6.79;54.30;97238.66;5106521;28;20059;-71
2023/12/22 11:06:37;;;;;;;2.65;1.70;;;;;;;6.65;54.28;97190.47;5106682;28;20036;-70
2023/12/22 11:09:09;;;;;;;4.90;1.85;;;;;;;6.92;53.84;97213.97;5106159;28;20241;-71
2023/12/22 11:11:38;;;;;;;3.08;1.80;;;;;;;7.02;53.41;97235.19;5105146;28;20357;-70
2023/12/22 11:14:06;;;;;;;3.83;1.85;;;;;;;7.18;54.18;97229.63;5106481;28;20100;-70
2023/12/22 11:16:34;;;;;;;3.33;1.70;;;;;;;7.03;53.29;97215.81;5106301;28;20311;-70
2023/12/22 11:19:02;;;;;;;2.92;1.73;;;;;;;7.18;53.54;97229.63;5106313;28;20052;-71
2023/12/22 11:21:29;;;;;;;2.65;1.60;;;;;;;7.13;53.60;97234.38;5106192;28;20103;-71
2023/12/22 11:23:57;;;;;;;3.08;1.50;;;;;;;7.13;53.84;97200.97;5106181;28;20063;-70
2023/12/22 11:26:26;;;;;;;2.40;1.45;;;;;;;7.07;53.62;97204.09;5105866;28;20047;-71
2023/12/22 11:28:53;;;;;;;2.40;1.70;;;;;;;7.07;54.14;97209.34;5105790;28;20300;-71
2023/12/22 11:31:20;;;;;;;3.15;1.88;;;;;;;7.00;54.19;97210.75;5106248;28;20050;-70
2023/12/22 11:33:48;;;;;;;2.42;1.50;;;;;;;6.96;54.18;97211.94;5105555;28;20070;-70
2023/12/22 11:36:16;;;;;;;3.03;1.70;;;;;;;6.85;53.56;97202.22;5106007;28;20090;-70
2023/12/22 11:38:43;;;;;;;2.80;1.88;;;;;;;6.25;53.19;97160.13;5105884;28;20262;-71
2023/12/22 11:41:13;;;;;;;3.70;1.40;;;;;;;6.40;53.26;97233.53;5105875;28;20105;-70